Time;durP1;ratioP1;P1;durP2;ratioP2;P2;SDS_P1;SDS_P2;PMS_P1;PMS_P2;Temp;Humidity;BMP_temperature;BMP_pressure;BME280_temperature;BME280_humidity;BME280_pressure;Samples;Min_cycle;Max_cycle;Signal;HPM_P1;HPM_P2
2022/02/18 00:00:18;;;;;;;42.63;22.92;;;;;;;5.25;100.00;92542.78;5010786;28;20172;-85
2022/02/18 00:02:46;;;;;;;39.00;21.45;;;;;;;5.35;100.00;92548.28;5026501;28;20057;-85
2022/02/18 00:05:13;;;;;;;32.53;20.58;;;;;;;5.43;100.00;92560.03;5030649;28;20041;-85
2022/02/18 00:07:40;;;;;;;44.78;20.33;;;;;;;5.51;100.00;92549.66;5030537;28;20054;-84
2022/02/18 00:10:07;;;;;;;34.03;18.92;;;;;;;5.56;100.00;92544.75;5017472;28;20046;-85
2022/02/18 00:12:34;;;;;;;28.00;17.13;;;;;;;5.62;100.00;92551.63;5010999;28;20046;-86
2022/02/18 00:15:01;;;;;;;28.17;15.68;;;;;;;5.63;100.00;92542.22;5010051;28;20054;-84
2022/02/18 00:17:30;;;;;;;24.92;13.30;;;;;;;5.59;100.00;92546.13;5009616;28;20053;-85
2022/02/18 00:19:58;;;;;;;22.38;13.30;;;;;;;5.53;100.00;92521.44;5010294;28;20136;-85
2022/02/18 00:22:27;;;;;;;20.65;11.55;;;;;;;5.59;100.00;92546.94;5009949;28;20041;-84
2022/02/18 00:24:54;;;;;;;26.40;14.15;;;;;;;5.60;100.00;92540.84;5009533;28;20052;-85
2022/02/18 00:27:20;;;;;;;27.67;15.05;;;;;;;5.62;100.00;92540.66;5009361;28;20050;-84
2022/02/18 00:29:47;;;;;;;33.20;18.08;;;;;;;5.53;100.00;92552.81;5009607;28;20506;-84
2022/02/18 00:32:14;;;;;;;24.85;12.90;;;;;;;5.46;100.00;92524.78;5010041;28;20046;-84
2022/02/18 00:34:41;;;;;;;24.83;13.02;;;;;;;5.51;100.00;92518.31;5013053;28;20054;-84
2022/02/18 00:37:09;;;;;;;22.50;13.70;;;;;;;5.52;100.00;92524.97;5014216;28;20551;-85
2022/02/18 00:39:37;;;;;;;21.77;13.27;;;;;;;5.52;100.00;92537.72;5014281;28;20552;-85
2022/02/18 00:42:04;;;;;;;19.63;11.25;;;;;;;5.48;100.00;92534.78;5014382;28;20053;-85
2022/02/18 00:44:31;;;;;;;17.73;10.85;;;;;;;5.49;100.00;92523.59;5014163;28;20046;-84
2022/02/18 00:46:58;;;;;;;17.67;10.40;;;;;;;5.49;100.00;92528.69;5014208;28;20100;-84
2022/02/18 00:49:25;;;;;;;17.17;10.25;;;;;;;5.48;100.00;92525.34;5014199;28;20049;-85
2022/02/18 00:51:52;;;;;;;16.42;9.73;;;;;;;5.46;100.00;92516.38;5013865;28;20057;-85
2022/02/18 00:54:20;;;;;;;21.77;10.85;;;;;;;5.32;100.00;92528.31;5013997;28;20046;-84
2022/02/18 00:56:47;;;;;;;23.15;14.10;;;;;;;5.17;100.00;92536.09;5014051;28;20049;-85
2022/02/18 00:59:14;;;;;;;25.88;14.75;;;;;;;5.02;100.00;92538.81;5013882;28;20050;-84
2022/02/18 01:01:40;;;;;;;23.65;14.98;;;;;;;4.93;100.00;92540.75;5013826;28;20104;-84
2022/02/18 01:04:07;;;;;;;27.95;16.77;;;;;;;4.63;100.00;92564.69;5013742;28;20053;-83
2022/02/18 01:06:34;;;;;;;24.67;14.57;;;;;;;4.49;100.00;92571.47;5014016;28;20073;-84
2022/02/18 01:09:01;;;;;;;26.55;15.23;;;;;;;4.43;100.00;92567.16;5013734;28;20054;-85
2022/02/18 01:11:29;;;;;;;30.35;17.77;;;;;;;4.36;100.00;92563.78;5013183;28;20053;-84
2022/02/18 01:13:56;;;;;;;36.72;18.05;;;;;;;4.51;100.00;92566.22;5012900;28;20104;-85
2022/02/18 01:16:22;;;;;;;28.02;15.35;;;;;;;4.71;100.00;92556.13;5013513;28;20069;-85
2022/02/18 01:18:49;;;;;;;31.83;17.95;;;;;;;4.67;100.00;92558.25;5013438;28;20104;-85
2022/02/18 01:21:16;;;;;;;31.73;18.48;;;;;;;4.75;100.00;92561.63;5013484;28;20050;-84
2022/02/18 01:23:43;;;;;;;32.85;17.65;;;;;;;4.88;100.00;92571.06;5013573;28;20050;-85
2022/02/18 01:26:10;;;;;;;33.42;17.05;;;;;;;5.02;100.00;92570.16;5013639;28;20104;-84
2022/02/18 01:28:38;;;;;;;24.67;15.90;;;;;;;5.14;100.00;92569.59;5013412;28;20498;-84
2022/02/18 01:31:05;;;;;;;26.77;16.13;;;;;;;5.25;100.00;92563.94;5013419;28;20046;-85
2022/02/18 01:33:32;;;;;;;27.35;16.25;;;;;;;5.33;100.00;92562.97;5013126;28;20050;-85
2022/02/18 01:35:58;;;;;;;29.80;17.13;;;;;;;5.27;100.00;92558.66;5013117;28;20571;-84
2022/02/18 01:38:26;;;;;;;36.22;18.35;;;;;;;5.42;100.00;92571.97;5013355;28;20096;-85
2022/02/18 01:40:52;;;;;;;29.77;17.23;;;;;;;5.48;100.00;92581.41;5013063;28;20046;-85
2022/02/18 01:43:19;;;;;;;44.80;22.98;;;;;;;5.46;100.00;92595.34;5012952;28;20073;-84
2022/02/18 01:45:48;;;;;;;35.03;19.85;;;;;;;5.53;100.00;92602.97;5013253;28;20045;-85
2022/02/18 01:48:14;;;;;;;35.08;18.92;;;;;;;5.51;100.00;92604.94;5012958;28;20054;-84
2022/02/18 01:50:43;;;;;;;32.10;16.65;;;;;;;5.54;100.00;92607.88;5013104;28;20054;-85
2022/02/18 01:53:12;;;;;;;30.25;15.68;;;;;;;5.50;100.00;92611.78;5013104;28;20465;-85
2022/02/18 01:55:39;;;;;;;28.40;17.10;;;;;;;5.47;100.00;92622.38;5013039;28;20046;-85
2022/02/18 01:58:07;;;;;;;36.65;21.80;;;;;;;5.48;100.00;92614.50;5012741;28;20513;-84
2022/02/18 02:00:35;;;;;;;36.83;20.77;;;;;;;5.37;100.00;92614.31;5012667;28;20065;-84
2022/02/18 02:03:03;;;;;;;39.08;19.58;;;;;;;5.44;100.00;92615.91;5030890;28;20501;-85
2022/02/18 02:05:30;;;;;;;44.50;22.45;;;;;;;5.48;100.00;92616.28;5032685;28;20097;-84
2022/02/18 02:07:58;;;;;;;41.05;21.38;;;;;;;5.39;100.00;92597.84;5032594;28;20045;-85
2022/02/18 02:10:25;;;;;;;39.08;20.38;;;;;;;5.47;100.00;92618.03;5032444;28;20120;-84
2022/02/18 02:12:54;;;;;;;46.20;21.25;;;;;;;5.55;100.00;92618.84;5032290;28;20057;-85
2022/02/18 02:15:22;;;;;;;40.05;21.42;;;;;;;5.67;100.00;92621.59;5018341;28;20054;-84
2022/02/18 02:17:49;;;;;;;42.38;20.35;;;;;;;5.66;100.00;92632.78;5012411;28;20049;-86
2022/02/18 02:20:18;;;;;;;42.03;21.15;;;;;;;5.69;100.00;92640.81;5012256;28;20057;-83
2022/02/18 02:22:46;;;;;;;50.72;25.98;;;;;;;5.10;100.00;92546.28;5012397;28;20058;-84
2022/02/18 02:25:13;;;;;;;36.30;21.50;;;;;;;5.65;100.00;92636.31;5012387;28;20053;-84
2022/02/18 02:27:40;;;;;;;42.75;21.50;;;;;;;5.60;100.00;92629.25;5010834;28;20057;-84
2022/02/18 02:30:11;;;;;;;37.15;21.20;;;;;;;5.57;100.00;92624.53;5010685;28;20088;-84
2022/02/18 02:32:38;;;;;;;33.58;20.98;;;;;;;5.70;100.00;92651.81;5010945;28;20058;-84
2022/02/18 02:35:06;;;;;;;32.72;19.98;;;;;;;5.66;100.00;92653.16;5011830;28;20054;-85
2022/02/18 02:37:32;;;;;;;34.38;19.63;;;;;;;5.68;100.00;92648.66;5012197;28;20054;-84
2022/02/18 02:40:01;;;;;;;37.63;20.90;;;;;;;5.67;100.00;92662.38;5011715;28;20560;-84
2022/02/18 02:42:27;;;;;;;38.05;20.00;;;;;;;5.70;100.00;92669.66;5011544;28;20073;-84
2022/02/18 02:44:54;;;;;;;32.40;17.92;;;;;;;5.70;100.00;92667.09;5011604;28;20092;-84
2022/02/18 02:47:21;;;;;;;31.88;17.45;;;;;;;5.74;100.00;92678.50;5011790;28;20108;-84
2022/02/18 02:49:48;;;;;;;33.00;19.35;;;;;;;5.75;100.00;92692.78;5011415;28;20056;-84
2022/02/18 02:52:14;;;;;;;39.65;22.13;;;;;;;5.72;100.00;92703.34;5011295;28;20046;-84
2022/02/18 02:54:42;;;;;;;38.63;20.65;;;;;;;5.62;100.00;92717.25;5011405;28;20046;-85
2022/02/18 02:57:10;;;;;;;36.78;21.30;;;;;;;5.30;100.00;92721.25;5010611;28;20050;-85
2022/02/18 02:59:37;;;;;;;35.78;17.23;;;;;;;5.05;100.00;92732.66;5011801;28;20068;-84
2022/02/18 03:02:04;;;;;;;35.85;18.20;;;;;;;4.82;100.00;92713.34;5011623;28;20058;-84
2022/02/18 03:04:32;;;;;;;48.33;20.15;;;;;;;4.72;100.00;92757.91;5011405;28;20425;-83
2022/02/18 03:06:58;;;;;;;60.92;20.60;;;;;;;4.80;100.00;92752.69;5011086;28;20085;-84
2022/02/18 03:09:25;;;;;;;50.70;19.23;;;;;;;4.84;100.00;92758.97;5010970;28;20103;-83
2022/02/18 03:11:52;;;;;;;25.15;8.98;;;;;;;4.52;100.00;92744.06;5011220;28;20054;-84
2022/02/18 03:14:20;;;;;;;10.73;5.70;;;;;;;4.38;100.00;92735.53;5011067;28;20490;-84
2022/02/18 03:16:47;;;;;;;5.47;2.40;;;;;;;4.64;100.00;92786.81;5011062;28;20065;-86
2022/02/18 03:19:14;;;;;;;4.72;2.40;;;;;;;4.62;100.00;92789.53;5011101;28;20050;-83
2022/02/18 03:21:41;;;;;;;3.72;2.00;;;;;;;4.73;100.00;92795.91;5010660;28;20042;-84
2022/02/18 03:24:08;;;;;;;4.57;1.98;;;;;;;4.52;100.00;92786.50;5010511;28;20416;-83
2022/02/18 03:26:35;;;;;;;4.47;1.67;;;;;;;4.54;100.00;92820.19;5010414;28;20058;-83
2022/02/18 03:29:01;;;;;;;3.22;1.50;;;;;;;4.28;100.00;92813.88;5010742;28;20046;-83
2022/02/18 03:31:30;;;;;;;2.58;1.42;;;;;;;4.32;100.00;92830.38;5010867;28;20548;-83
2022/02/18 03:33:56;;;;;;;4.32;2.03;;;;;;;4.36;100.00;92846.81;5010722;28;20406;-84
2022/02/18 03:36:23;;;;;;;4.07;1.70;;;;;;;4.31;100.00;92846.59;5010414;28;20049;-84
2022/02/18 03:38:50;;;;;;;3.58;1.90;;;;;;;4.27;100.00;92858.06;5010685;28;20351;-84
2022/02/18 03:41:17;;;;;;;4.80;1.50;;;;;;;4.16;100.00;92856.00;5010472;28;20584;-84
2022/02/18 03:43:44;;;;;;;3.17;1.90;;;;;;;4.24;100.00;92887.19;5010508;28;20050;-83
2022/02/18 03:46:10;;;;;;;3.78;1.60;;;;;;;4.21;100.00;92885.00;5010658;28;20049;-83
2022/02/18 03:48:39;;;;;;;3.65;1.63;;;;;;;4.22;100.00;92899.28;5010557;28;20050;-84
2022/02/18 03:51:06;;;;;;;3.78;1.83;;;;;;;4.05;100.00;92903.78;5010550;28;20125;-85
2022/02/18 03:53:32;;;;;;;3.45;2.17;;;;;;;4.04;100.00;92912.38;5010415;28;20096;-83
2022/02/18 03:56:01;;;;;;;4.03;1.80;;;;;;;3.89;100.00;92909.81;5010525;28;20057;-84
2022/02/18 03:58:28;;;;;;;2.85;1.20;;;;;;;3.81;100.00;92915.81;5010593;28;20196;-84
2022/02/18 04:00:55;;;;;;;4.07;1.42;;;;;;;3.71;100.00;92921.13;5010240;28;20085;-83
2022/02/18 04:03:22;;;;;;;4.60;1.65;;;;;;;3.68;100.00;92931.66;5010243;28;20042;-83
2022/02/18 04:05:50;;;;;;;3.17;1.38;;;;;;;3.76;100.00;92929.97;5010249;28;20061;-84
2022/02/18 04:08:17;;;;;;;2.97;1.50;;;;;;;3.69;100.00;92927.34;5012314;28;20457;-84
2022/02/18 04:10:44;;;;;;;3.85;1.50;;;;;;;3.50;100.00;92941.34;5014502;28;20046;-81
2022/02/18 04:13:11;;;;;;;3.08;1.40;;;;;;;3.52;100.00;92942.75;5014659;28;20054;-83
2022/02/18 04:15:38;;;;;;;3.22;1.30;;;;;;;3.41;100.00;92955.84;5014185;28;20391;-84
2022/02/18 04:18:05;;;;;;;2.97;1.27;;;;;;;3.45;100.00;92974.88;5013872;28;20049;-84
2022/02/18 04:20:32;;;;;;;2.97;1.50;;;;;;;3.44;100.00;92960.59;5014142;28;20046;-85
2022/02/18 04:23:00;;;;;;;4.38;1.30;;;;;;;3.28;100.00;92957.22;5013671;28;20106;-85
2022/02/18 04:25:27;;;;;;;1.92;0.82;;;;;;;3.53;100.00;92981.63;5014270;28;20764;-85
2022/02/18 04:27:57;;;;;;;2.42;1.10;;;;;;;3.47;100.00;92978.81;5014110;28;20104;-84
2022/02/18 04:30:24;;;;;;;2.10;1.10;;;;;;;3.56;100.00;92984.63;5013761;28;20045;-83
2022/02/18 04:32:52;;;;;;;1.70;0.93;;;;;;;3.56;100.00;92994.78;5013896;28;20202;-83
2022/02/18 04:35:20;;;;;;;1.83;1.17;;;;;;;3.37;100.00;92995.25;5013706;28;20057;-83
2022/02/18 04:37:47;;;;;;;4.03;2.15;;;;;;;3.57;100.00;93003.97;5014099;28;20061;-83
2022/02/18 04:40:17;;;;;;;8.43;1.95;;;;;;;3.67;100.00;92991.03;5013884;28;20556;-83
2022/02/18 04:42:45;;;;;;;4.05;1.45;;;;;;;3.46;100.00;92958.66;5003069;28;20053;-82
2022/02/18 04:45:12;;;;;;;2.60;1.02;;;;;;;3.44;100.00;92976.63;5013946;28;20486;-84
2022/02/18 04:47:39;;;;;;;2.55;1.33;;;;;;;3.25;100.00;92965.19;5014034;28;20097;-83
2022/02/18 04:50:07;;;;;;;3.22;1.70;;;;;;;3.34;100.00;92963.38;5013944;28;20504;-83
2022/02/18 04:52:34;;;;;;;1.75;1.10;;;;;;;3.36;100.00;92979.22;5013693;28;20050;-82
2022/02/18 04:55:01;;;;;;;2.88;1.35;;;;;;;3.30;100.00;92973.09;5013676;28;20141;-82
2022/02/18 04:57:29;;;;;;;3.83;1.42;;;;;;;3.19;100.00;92953.16;5013446;28;20137;-83
2022/02/18 04:59:56;;;;;;;11.07;2.50;;;;;;;3.37;100.00;92970.63;5013345;28;20046;-83
2022/02/18 05:02:23;;;;;;;12.32;2.40;;;;;;;3.52;100.00;92982.59;5013290;28;20068;-83
2022/02/18 05:04:50;;;;;;;10.52;2.65;;;;;;;3.53;100.00;92977.34;5013488;28;20049;-83
2022/02/18 05:07:17;;;;;;;12.00;3.00;;;;;;;3.55;100.00;92985.56;5013181;28;20057;-84
2022/02/18 05:09:45;;;;;;;15.13;2.85;;;;;;;3.69;100.00;93001.00;5013608;28;20486;-81
2022/02/18 05:12:12;;;;;;;10.40;3.03;;;;;;;3.39;100.00;92989.06;5013173;28;20054;-82
2022/02/18 05:14:40;;;;;;;4.72;2.00;;;;;;;3.39;100.00;93009.38;5012802;28;20057;-84
2022/02/18 05:17:07;;;;;;;5.65;3.05;;;;;;;3.37;100.00;93025.72;5012920;28;20406;-83
2022/02/18 05:19:34;;;;;;;12.65;2.72;;;;;;;3.31;100.00;93015.28;5012561;28;20050;-83
2022/02/18 05:22:01;;;;;;;7.97;2.53;;;;;;;3.42;100.00;93042.00;5012831;28;20061;-83
2022/02/18 05:24:27;;;;;;;6.82;2.65;;;;;;;3.42;100.00;93036.94;5012804;28;20104;-85
2022/02/18 05:26:54;;;;;;;8.50;2.55;;;;;;;3.37;100.00;93030.81;5012403;28;20391;-83
2022/02/18 05:29:21;;;;;;;8.38;3.90;;;;;;;3.29;100.00;93037.50;5012756;28;20120;-84
2022/02/18 05:31:49;;;;;;;7.80;2.72;;;;;;;3.36;100.00;93042.69;5012731;28;20777;-84
2022/02/18 05:34:16;;;;;;;7.45;3.92;;;;;;;3.57;100.00;93043.81;5012606;28;20516;-84
2022/02/18 05:36:43;;;;;;;6.20;2.40;;;;;;;3.57;100.00;93041.28;5012554;28;20053;-82
2022/02/18 05:39:10;;;;;;;14.93;5.95;;;;;;;3.66;100.00;93039.47;5011986;28;20568;-84
2022/02/18 05:41:37;;;;;;;8.60;2.90;;;;;;;3.50;100.00;93041.16;5012976;28;20057;-85
2022/02/18 05:44:06;;;;;;;18.98;6.68;;;;;;;3.25;100.00;93059.13;5012491;28;20054;-86
2022/02/18 05:46:32;;;;;;;10.85;3.03;;;;;;;3.33;100.00;93074.28;5012950;28;20096;-85
2022/02/18 05:49:00;;;;;;;6.63;3.25;;;;;;;3.30;100.00;93071.31;5012542;28;20104;-85
2022/02/18 05:51:27;;;;;;;24.85;9.13;;;;;;;3.30;100.00;93063.69;5012400;28;20045;-84
2022/02/18 05:53:54;;;;;;;4.25;1.33;;;;;;;3.18;99.36;93071.69;5012080;28;20100;-85
2022/02/18 05:56:21;;;;;;;20.33;6.85;;;;;;;3.23;99.47;93071.19;5012173;28;20046;-84
2022/02/18 05:58:48;;;;;;;36.17;12.07;;;;;;;3.27;99.54;93069.09;5012012;28;20108;-84
2022/02/18 06:01:14;;;;;;;5.72;3.00;;;;;;;3.31;96.67;93083.84;5011646;28;20498;-84
2022/02/18 06:03:41;;;;;;;13.20;4.28;;;;;;;3.28;97.27;93089.22;5012009;28;20049;-84
2022/02/18 06:06:09;;;;;;;2.92;1.50;;;;;;;3.24;95.89;93094.81;5011968;28;20049;-84
2022/02/18 06:08:36;;;;;;;12.35;6.18;;;;;;;3.41;97.85;93093.75;5011562;28;20060;-83
2022/02/18 06:11:03;;;;;;;4.60;2.78;;;;;;;3.41;95.80;93110.75;5011675;28;20042;-84
2022/02/18 06:13:30;;;;;;;7.57;3.38;;;;;;;3.34;93.21;93106.34;5011885;28;20425;-82
2022/02/18 06:15:56;;;;;;;8.23;3.65;;;;;;;3.35;91.75;93124.91;5011738;28;20058;-84
2022/02/18 06:18:23;;;;;;;8.18;3.88;;;;;;;3.41;92.22;93119.16;5011606;28;20088;-83
2022/02/18 06:20:50;;;;;;;11.93;4.38;;;;;;;3.37;92.58;93092.50;5011656;28;20050;-84
2022/02/18 06:23:18;;;;;;;5.63;2.47;;;;;;;3.51;93.52;93103.69;5011618;28;20053;-84
2022/02/18 06:25:45;;;;;;;5.97;2.25;;;;;;;3.69;93.08;93122.94;5011572;28;20054;-84
2022/02/18 06:28:14;;;;;;;9.38;2.53;;;;;;;3.59;92.46;93123.19;5011413;28;20042;-84
2022/02/18 06:30:41;;;;;;;9.07;2.72;;;;;;;3.36;92.54;93095.22;5011025;28;20555;-84
2022/02/18 06:33:09;;;;;;;5.38;2.17;;;;;;;3.63;91.74;93142.22;5011035;28;20112;-84
2022/02/18 06:35:39;;;;;;;6.53;2.40;;;;;;;3.58;91.42;93157.97;5011150;28;20049;-83
2022/02/18 06:38:06;;;;;;;7.55;2.30;;;;;;;3.65;92.28;93145.34;5011308;28;20064;-84
2022/02/18 06:40:35;;;;;;;7.00;2.40;;;;;;;3.50;91.67;93154.66;5012012;28;20129;-83
2022/02/18 06:43:02;;;;;;;6.00;2.47;;;;;;;3.59;94.15;93151.13;5011495;28;20124;-83
2022/02/18 06:45:28;;;;;;;4.82;1.45;;;;;;;3.57;93.54;93118.25;5011184;28;20486;-84
2022/02/18 06:47:55;;;;;;;6.32;2.08;;;;;;;3.64;92.35;93146.31;5011278;28;20045;-83
2022/02/18 06:50:22;;;;;;;4.53;1.77;;;;;;;3.73;94.59;93159.75;5011179;28;20054;-84
2022/02/18 06:52:49;;;;;;;4.28;2.10;;;;;;;3.77;94.47;93153.38;5010962;28;20058;-84
2022/02/18 06:55:17;;;;;;;3.60;1.60;;;;;;;3.92;94.21;93165.34;5010928;28;20050;-83
2022/02/18 06:57:47;;;;;;;6.43;2.10;;;;;;;3.95;93.45;93176.00;5010865;28;20050;-85
2022/02/18 07:00:16;;;;;;;9.63;2.55;;;;;;;3.98;93.71;93179.94;5011396;28;20054;-84
2022/02/18 07:02:43;;;;;;;4.35;1.92;;;;;;;4.01;93.81;93187.22;5010649;28;20085;-84
2022/02/18 07:05:11;;;;;;;4.53;1.70;;;;;;;4.25;92.51;93196.41;5010971;28;20053;-85
2022/02/18 07:07:39;;;;;;;6.00;2.00;;;;;;;4.35;90.96;93192.84;5010732;28;20077;-84
2022/02/18 07:10:08;;;;;;;7.43;2.00;;;;;;;4.59;91.91;93191.84;5010902;28;20133;-82
2022/02/18 07:12:35;;;;;;;5.50;1.95;;;;;;;4.71;91.06;93179.50;5011045;28;20065;-84
2022/02/18 07:15:04;;;;;;;4.30;1.60;;;;;;;4.88;91.93;93184.41;5010654;28;20552;-81
2022/02/18 07:17:32;;;;;;;6.25;1.55;;;;;;;4.97;88.79;93185.13;5010318;28;20510;-82
2022/02/18 07:19:59;;;;;;;3.85;1.30;;;;;;;4.88;88.19;93147.03;5010643;28;20050;-82
2022/02/18 07:22:26;;;;;;;5.80;2.13;;;;;;;5.06;87.23;93186.63;5010719;28;20477;-83
2022/02/18 07:24:53;;;;;;;2.70;0.85;;;;;;;4.76;85.05;93178.97;5010499;28;20486;-84
2022/02/18 07:27:21;;;;;;;3.53;0.88;;;;;;;4.79;87.63;93146.34;5010535;28;20069;-84
2022/02/18 07:29:48;;;;;;;3.75;1.52;;;;;;;5.14;90.03;93178.88;5009939;28;20046;-83
2022/02/18 07:32:16;;;;;;;4.90;1.42;;;;;;;5.06;86.95;93178.97;5010029;28;20050;-84
2022/02/18 07:34:43;;;;;;;3.88;1.38;;;;;;;5.30;86.57;93172.81;5011155;28;20046;-83
2022/02/18 07:37:10;;;;;;;4.40;1.50;;;;;;;5.50;85.45;93168.94;5011052;28;20120;-83
2022/02/18 07:39:38;;;;;;;4.80;1.42;;;;;;;5.44;85.22;93172.97;5010580;28;20100;-83
2022/02/18 07:42:05;;;;;;;5.50;1.85;;;;;;;5.63;84.16;93158.88;5010285;28;20132;-83
2022/02/18 07:44:32;;;;;;;6.15;1.58;;;;;;;5.62;84.79;93160.59;5010584;28;20049;-83
2022/02/18 07:46:59;;;;;;;6.35;1.70;;;;;;;5.92;86.09;93154.63;5010626;28;20177;-83
2022/02/18 07:49:27;;;;;;;3.30;1.40;;;;;;;6.16;83.28;93147.63;5010732;28;20050;-84
2022/02/18 07:51:54;;;;;;;4.65;1.35;;;;;;;6.23;82.80;93157.88;5010815;28;20525;-83
2022/02/18 07:54:20;;;;;;;3.53;1.65;;;;;;;6.31;83.17;93160.31;5010366;28;20487;-83
2022/02/18 07:56:47;;;;;;;3.70;1.20;;;;;;;6.61;82.48;93160.13;5010364;28;20042;-83
2022/02/18 07:59:14;;;;;;;2.45;1.23;;;;;;;6.64;82.18;93171.72;5010419;28;20045;-83
2022/02/18 08:01:41;;;;;;;2.50;0.90;;;;;;;6.73;79.53;93170.63;5015024;28;20085;-83
2022/02/18 08:04:09;;;;;;;4.13;1.27;;;;;;;6.78;78.54;93164.94;5029984;28;20048;-82
2022/02/18 08:06:37;;;;;;;3.25;1.02;;;;;;;6.70;78.54;93172.75;5030094;28;20123;-85
2022/02/18 08:09:04;;;;;;;8.10;1.48;;;;;;;6.66;78.45;93173.13;5030332;28;20112;-83
2022/02/18 08:11:31;;;;;;;3.35;1.17;;;;;;;6.47;76.51;93176.31;5029935;28;20049;-83
2022/02/18 08:13:59;;;;;;;5.03;1.80;;;;;;;6.35;76.22;93176.03;5029948;28;20080;-83
2022/02/18 08:16:27;;;;;;;7.38;2.17;;;;;;;6.61;79.11;93167.78;5029958;28;20059;-83
2022/02/18 08:18:54;;;;;;;9.52;2.45;;;;;;;6.74;78.81;93179.84;5029940;28;20046;-83
2022/02/18 08:21:21;;;;;;;7.05;1.90;;;;;;;6.94;76.39;93174.06;5030153;28;20045;-84
2022/02/18 08:23:52;;;;;;;12.23;2.95;;;;;;;6.90;73.70;93178.75;5029967;28;20459;-83
2022/02/18 08:26:19;;;;;;;11.98;2.90;;;;;;;6.80;73.69;93171.44;5029967;28;20509;-83
2022/02/18 08:28:46;;;;;;;6.97;2.17;;;;;;;6.86;72.21;93180.13;5029823;28;20140;-84
2022/02/18 08:31:13;;;;;;;26.38;13.30;;;;;;;6.81;75.74;93167.13;5029944;28;20060;-83
2022/02/18 08:33:41;;;;;;;5.47;1.85;;;;;;;6.89;72.75;93154.19;5029391;28;20050;-84
2022/02/18 08:36:08;;;;;;;4.82;1.45;;;;;;;7.29;72.47;93179.16;5030097;28;20057;-83
2022/02/18 08:38:35;;;;;;;2.15;0.98;;;;;;;7.40;70.97;93154.06;5029634;28;20053;-84
2022/02/18 08:41:04;;;;;;;3.72;1.00;;;;;;;7.73;71.97;93174.59;5029635;28;20053;-83
2022/02/18 08:43:31;;;;;;;5.20;1.60;;;;;;;7.64;67.80;93170.63;5029760;28;20416;-84
2022/02/18 08:45:58;;;;;;;6.00;1.60;;;;;;;7.73;70.01;93163.59;5029512;28;20524;-83
2022/02/18 08:48:25;;;;;;;7.43;1.42;;;;;;;7.92;66.65;93174.81;5029650;28;20049;-83
2022/02/18 08:50:51;;;;;;;15.70;1.70;;;;;;;7.90;64.46;93171.69;5029418;28;20049;-84
2022/02/18 08:53:18;;;;;;;10.20;4.68;;;;;;;8.25;65.36;93160.53;5029267;28;20041;-84
2022/02/18 08:55:45;;;;;;;5.65;1.65;;;;;;;8.38;61.20;93175.88;5023408;28;20054;-84
2022/02/18 08:58:13;;;;;;;5.57;2.10;;;;;;;8.58;68.47;93158.97;5013017;28;20422;-83
2022/02/18 09:00:40;;;;;;;10.27;2.55;;;;;;;8.88;63.58;93171.34;5013391;28;20100;-82
2022/02/18 09:03:07;;;;;;;15.52;3.40;;;;;;;8.91;62.14;93168.38;5012882;28;20054;-83
2022/02/18 09:05:34;;;;;;;8.43;2.00;;;;;;;9.06;61.11;93170.72;5012761;28;20136;-83
2022/02/18 09:08:01;;;;;;;3.83;1.55;;;;;;;8.71;58.82;93169.22;5013181;28;20536;-83
2022/02/18 09:10:27;;;;;;;3.92;1.27;;;;;;;8.48;55.95;93178.03;5013184;28;20046;-83
2022/02/18 09:12:54;;;;;;;2.75;1.00;;;;;;;8.48;56.10;93174.69;5012912;28;20056;-83
2022/02/18 09:15:22;;;;;;;6.93;2.08;;;;;;;8.36;55.83;93159.94;5013253;28;20049;-83
2022/02/18 09:17:49;;;;;;;3.05;0.90;;;;;;;8.29;57.73;93139.44;5013216;28;20049;-83
2022/02/18 09:20:16;;;;;;;7.07;1.23;;;;;;;8.50;55.28;93170.97;5013608;28;20050;-83
2022/02/18 09:22:43;;;;;;;15.20;2.90;;;;;;;8.73;56.17;93174.91;5013173;28;20060;-83
2022/02/18 09:25:10;;;;;;;4.18;1.30;;;;;;;8.76;55.37;93166.84;5012945;28;20049;-83
2022/02/18 09:27:37;;;;;;;1.33;0.60;;;;;;;9.14;54.18;93173.06;5013240;28;20072;-83
2022/02/18 09:30:07;;;;;;;2.53;1.17;;;;;;;9.00;55.21;93174.06;5013685;28;20096;-83
2022/02/18 09:32:35;;;;;;;6.00;1.30;;;;;;;8.98;52.47;93173.50;5013045;28;20512;-83
2022/02/18 09:35:03;;;;;;;2.88;0.98;;;;;;;8.65;53.07;93160.53;5012987;28;20050;-82
2022/02/18 09:37:30;;;;;;;5.32;1.08;;;;;;;9.06;52.64;93157.91;5012926;28;20516;-83
2022/02/18 09:39:57;;;;;;;2.45;0.77;;;;;;;9.08;56.38;93143.91;5014859;28;20054;-83
2022/02/18 09:42:26;;;;;;;2.90;1.30;;;;;;;9.56;55.80;93146.28;5022145;28;20445;-83
2022/02/18 09:44:54;;;;;;;17.88;4.75;;;;;;;9.46;49.43;93157.00;5017385;28;20045;-84
2022/02/18 09:47:20;;;;;;;4.80;1.23;;;;;;;9.01;54.03;93157.72;5020293;28;20049;-83
2022/02/18 09:49:48;;;;;;;7.15;2.05;;;;;;;9.23;52.15;93163.38;5017759;28;20053;-83
2022/02/18 09:52:16;;;;;;;7.47;1.20;;;;;;;9.41;54.00;93160.16;5015757;28;20050;-84
2022/02/18 09:54:43;;;;;;;5.80;1.20;;;;;;;9.06;48.51;93163.03;5021385;28;20041;-83
2022/02/18 09:57:10;;;;;;;10.43;2.78;;;;;;;9.47;49.07;93159.34;5023111;28;20041;-83
2022/02/18 09:59:38;;;;;;;12.57;3.10;;;;;;;9.42;51.78;93151.50;5032072;28;20100;-84
2022/02/18 10:02:05;;;;;;;20.42;2.20;;;;;;;9.59;49.45;93174.88;5020008;28;20064;-83
2022/02/18 10:04:32;;;;;;;6.15;1.42;;;;;;;9.33;51.18;93168.06;5012933;28;20061;-83
2022/02/18 10:07:03;;;;;;;4.63;1.00;;;;;;;9.59;50.60;93174.88;5013187;28;20052;-84
2022/02/18 10:09:40;;;;;;;3.25;0.85;;;;;;;9.77;52.37;93168.31;5012464;28;20046;-83
2022/02/18 10:12:09;;;;;;;3.45;1.40;;;;;;;9.99;51.00;93163.63;5012332;28;20056;-84
2022/02/18 10:14:56;;;;;;;6.88;1.40;;;;;;;10.19;49.62;93157.59;5011500;28;20148;-83
2022/02/18 10:17:24;;;;;;;6.03;1.83;;;;;;;10.40;47.14;93153.88;5024661;28;20077;-84
2022/02/18 10:19:53;;;;;;;15.27;5.63;;;;;;;10.54;50.57;93121.19;5032278;28;20045;-84
2022/02/18 10:22:30;;;;;;;7.50;2.50;;;;;;;10.67;48.79;93130.56;5016188;28;20129;-85
2022/02/18 10:24:57;;;;;;;3.40;0.90;;;;;;;10.56;45.33;93139.75;5011655;28;20045;-84
2022/02/18 10:27:42;;;;;;;2.95;0.93;;;;;;;10.50;43.96;93150.84;5012557;28;20061;-84
2022/02/18 10:30:09;;;;;;;3.05;1.23;;;;;;;9.81;46.93;93154.06;5012191;28;20054;-84
2022/02/18 10:32:40;;;;;;;15.93;7.93;;;;;;;10.08;48.28;93147.97;5012174;28;20049;-83
2022/02/18 10:35:08;;;;;;;5.13;1.27;;;;;;;9.80;46.91;93149.13;5012266;28;20057;-84
2022/02/18 10:37:36;;;;;;;3.85;1.20;;;;;;;9.91;48.78;93155.38;5012445;28;20045;-83
2022/02/18 10:40:10;;;;;;;3.40;0.75;;;;;;;9.32;50.59;93113.47;5012068;28;20490;-83
2022/02/18 10:42:37;;;;;;;6.60;2.50;;;;;;;9.25;49.32;93132.44;5012033;28;20571;-83
2022/02/18 10:45:10;;;;;;;5.22;1.23;;;;;;;9.33;47.72;93132.97;5012074;28;20050;-85
2022/02/18 10:47:37;;;;;;;4.20;1.67;;;;;;;9.27;46.27;93127.88;5011875;28;20077;-83
2022/02/18 10:50:15;;;;;;;1.98;0.60;;;;;;;9.00;46.60;93127.97;5012129;28;20100;-83
2022/02/18 10:52:43;;;;;;;2.72;1.00;;;;;;;9.34;47.17;93134.56;5011992;28;20050;-83
2022/02/18 10:55:11;;;;;;;3.08;1.40;;;;;;;9.38;45.73;93141.81;5012017;28;20054;-83
2022/02/18 10:57:38;;;;;;;2.95;0.80;;;;;;;9.60;47.56;93138.00;5011867;28;20057;-83
2022/02/18 11:00:16;;;;;;;3.83;1.02;;;;;;;9.42;46.45;93128.41;5011518;28;20054;-84
2022/02/18 11:02:50;;;;;;;4.45;1.17;;;;;;;9.55;47.54;93132.69;5011835;28;20054;-83
2022/02/18 11:05:21;;;;;;;3.88;0.95;;;;;;;9.81;45.26;93138.66;5011826;28;20057;-83
2022/02/18 11:07:49;;;;;;;4.28;1.20;;;;;;;9.87;43.89;93137.06;5011569;28;20548;-83
2022/02/18 11:10:36;;;;;;;4.13;1.70;;;;;;;9.44;45.14;93126.41;5011565;28;20506;-82
2022/02/18 11:13:03;;;;;;;5.97;1.20;;;;;;;9.37;45.38;93115.41;5011798;28;20046;-83
2022/02/18 11:15:30;;;;;;;3.72;0.98;;;;;;;9.30;44.40;93125.69;5011497;28;20062;-83
2022/02/18 11:17:58;;;;;;;5.22;1.10;;;;;;;9.62;45.92;93122.38;5011095;28;20053;-82
2022/02/18 11:20:25;;;;;;;5.90;2.42;;;;;;;9.58;45.36;93134.06;5012264;28;20060;-82
2022/02/18 11:22:56;;;;;;;7.88;2.33;;;;;;;9.74;45.47;93136.16;5031065;28;20045;-82
2022/02/18 11:25:23;;;;;;;19.33;5.53;;;;;;;9.95;46.55;93125.78;5031088;28;20508;-82
2022/02/18 11:27:52;;;;;;;8.60;2.42;;;;;;;9.96;45.01;93112.72;5011884;28;20050;-82
2022/02/18 11:30:20;;;;;;;12.88;5.93;;;;;;;10.07;45.26;93125.88;5011684;28;20132;-83
2022/02/18 11:33:01;;;;;;;6.47;1.30;;;;;;;9.98;43.67;93125.34;5011317;28;20053;-83